East Corinth, VT (05040)

05:38 PM EST del 27 Febbraio 2015 (GMT -0500)
Goshen Heights | Change Station
CLOSE
Current Station
Stazione meteo personale
Location: Bradford, VT
Altitudine: 1060 ft
Stazioni meteo nelle vicinanze

Alt. 1060 ft 44.01 °N, 72.14 °W | Updated 0 second ago

Sereno
Sereno
11.4 °F
Sembra 11 °F
N
0.0
Vento Variabile Vento da ONO
Gusts 0.0 mph

Oggi
Massima -- | Minima -- °F
--% Possibilità di precip.
Ieri
Massima -- | Minima -- °F
Precip. -- in
6:29 AM 5:34 PM
Gobba a ponente, 72% visible
Pressione 30.44 in
Visibilità 10.0 miglia
Nuvole Sereno
Raffreddamento del vento 11 °F
Punto di rugiada -7 °F
Umidità 43%
Piovosità 0.00 in
Spessore del manto nevoso Non disponibile.
Raggi UV 0 fuori da 12
Polline .30 fuori da 12
Qualità dell'aria Non disponibile.
Flu Activity Non disponibile.
METAR KMPV 272151Z AUTO 35004KT 10SM CLR M10/M22 A3035 RMK AO2 SLP308 T11001222

More Conditions Fewer Conditions

Pressione 30.44 in
Visibilità 10.0 miglia
Nuvole Sereno
Raffreddamento del vento 11 °F
Punto di rugiada -7 °F
Umidità 43%
Piovosità 0.00 in
Spessore del manto nevoso Non disponibile.
Raggi UV 0 fuori da 12
Polline .30 fuori da 12
Qualità dell'aria Non disponibile.
Flu Activity Non disponibile.
METAR KMPV 272151Z AUTO 35004KT 10SM CLR M10/M22 A3035 RMK AO2 SLP308 T11001222

More Conditions Fewer Conditions

10-Day Weather Forecast

Almanac

Astronomia

Feb. 27, 2015 Alba Tramonto
Ora attuale
Crepuscolo civile
Crepuscolo nautico
Crepuscolo astronomico
Luna
Estensione della luce visibile
Lunghezza del giorno
Tomorrow will be .
, % of the Moon is Illuminated

Gli estremi di oggi

State Highs State Lows

Community

WunderPhotos

Upload Photos

1,800,852 foto caricate!

WunderBlogs® & News

Nearby

Qualità dell'aria

  Qualità dell'aria Indice AQ Inquinante
Not available.

Profondità neve

Stazione Profondità Altitudine

Attività sismica

Città  Distanza Mag. Data & Ora
Minimo Magnitudo Mostrato è 2.5.

Temperature delle acque costiere

Località Temperatura

Stazioni meteo nelle vicinanze